sensor_id;sensor_type;location;lat;lon;timestamp;temperature;humidity
39493;DHT22;25176;51.060;3.720;2022-07-17T00:01:33;19.40;64.30
39493;DHT22;25176;51.060;3.720;2022-07-17T00:03:59;19.30;63.90
39493;DHT22;25176;51.060;3.720;2022-07-17T00:06:24;19.20;64.30
39493;DHT22;25176;51.060;3.720;2022-07-17T00:08:50;19.00;65.20
39493;DHT22;25176;51.060;3.720;2022-07-17T00:11:15;18.80;66.00
39493;DHT22;25176;51.060;3.720;2022-07-17T00:13:41;18.70;66.40
39493;DHT22;25176;51.060;3.720;2022-07-17T00:16:07;18.70;66.70
39493;DHT22;25176;51.060;3.720;2022-07-17T00:18:32;18.60;66.80
39493;DHT22;25176;51.060;3.720;2022-07-17T00:20:58;18.70;66.90
39493;DHT22;25176;51.060;3.720;2022-07-17T00:23:24;18.70;66.70
39493;DHT22;25176;51.060;3.720;2022-07-17T00:25:49;18.70;66.80
39493;DHT22;25176;51.060;3.720;2022-07-17T00:28:15;18.70;67.00
39493;DHT22;25176;51.060;3.720;2022-07-17T00:30:40;18.70;67.10
39493;DHT22;25176;51.060;3.720;2022-07-17T00:33:06;18.70;67.40
39493;DHT22;25176;51.060;3.720;2022-07-17T00:35:32;18.70;67.50
39493;DHT22;25176;51.060;3.720;2022-07-17T00:37:58;18.70;67.20
39493;DHT22;25176;51.060;3.720;2022-07-17T00:40:23;18.90;66.90
39493;DHT22;25176;51.060;3.720;2022-07-17T00:42:51;18.90;66.40
39493;DHT22;25176;51.060;3.720;2022-07-17T00:45:17;18.90;66.70
39493;DHT22;25176;51.060;3.720;2022-07-17T00:50:15;18.70;67.30
39493;DHT22;25176;51.060;3.720;2022-07-17T00:52:41;18.70;67.70
39493;DHT22;25176;51.060;3.720;2022-07-17T00:55:07;18.80;67.30
39493;DHT22;25176;51.060;3.720;2022-07-17T00:57:35;18.70;67.80
39493;DHT22;25176;51.060;3.720;2022-07-17T01:00:03;18.50;67.90
39493;DHT22;25176;51.060;3.720;2022-07-17T01:02:34;18.50;68.60
39493;DHT22;25176;51.060;3.720;2022-07-17T01:04:59;18.40;69.10
39493;DHT22;25176;51.060;3.720;2022-07-17T01:07:25;18.40;69.30
39493;DHT22;25176;51.060;3.720;2022-07-17T01:09:50;18.40;69.30
39493;DHT22;25176;51.060;3.720;2022-07-17T01:12:17;18.30;69.70
39493;DHT22;25176;51.060;3.720;2022-07-17T01:14:43;18.10;70.60
39493;DHT22;25176;51.060;3.720;2022-07-17T01:17:09;18.00;71.20
39493;DHT22;25176;51.060;3.720;2022-07-17T01:19:35;17.90;71.40
39493;DHT22;25176;51.060;3.720;2022-07-17T01:22:01;17.80;71.80
39493;DHT22;25176;51.060;3.720;2022-07-17T01:24:26;17.90;71.50
39493;DHT22;25176;51.060;3.720;2022-07-17T01:26:52;17.80;71.80
39493;DHT22;25176;51.060;3.720;2022-07-17T01:29:18;17.80;71.80
39493;DHT22;25176;51.060;3.720;2022-07-17T01:31:44;17.70;71.70
39493;DHT22;25176;51.060;3.720;2022-07-17T01:34:11;17.70;72.20
39493;DHT22;25176;51.060;3.720;2022-07-17T01:36:38;17.60;72.50
39493;DHT22;25176;51.060;3.720;2022-07-17T01:39:04;17.70;72.20
39493;DHT22;25176;51.060;3.720;2022-07-17T01:41:30;17.70;72.40
39493;DHT22;25176;51.060;3.720;2022-07-17T01:43:56;17.40;73.50
39493;DHT22;25176;51.060;3.720;2022-07-17T01:46:22;17.40;74.10
39493;DHT22;25176;51.060;3.720;2022-07-17T01:48:48;17.50;73.80
39493;DHT22;25176;51.060;3.720;2022-07-17T01:51:13;17.60;73.30
39493;DHT22;25176;51.060;3.720;2022-07-17T01:53:39;17.60;73.30
39493;DHT22;25176;51.060;3.720;2022-07-17T01:56:05;17.60;73.50
39493;DHT22;25176;51.060;3.720;2022-07-17T01:58:31;17.70;73.30
39493;DHT22;25176;51.060;3.720;2022-07-17T02:00:56;17.70;73.60
39493;DHT22;25176;51.060;3.720;2022-07-17T02:03:22;17.70;73.40
39493;DHT22;25176;51.060;3.720;2022-07-17T02:05:48;17.70;73.20
39493;DHT22;25176;51.060;3.720;2022-07-17T02:08:14;17.90;73.30
39493;DHT22;25176;51.060;3.720;2022-07-17T02:10:39;17.90;73.00
39493;DHT22;25176;51.060;3.720;2022-07-17T02:13:05;17.80;73.50
39493;DHT22;25176;51.060;3.720;2022-07-17T02:15:30;17.80;73.50
39493;DHT22;25176;51.060;3.720;2022-07-17T02:17:57;17.80;73.70
39493;DHT22;25176;51.060;3.720;2022-07-17T02:20:22;17.70;73.30
39493;DHT22;25176;51.060;3.720;2022-07-17T02:22:48;17.50;74.60
39493;DHT22;25176;51.060;3.720;2022-07-17T02:25:14;17.60;74.70
39493;DHT22;25176;51.060;3.720;2022-07-17T02:27:40;17.60;75.10
39493;DHT22;25176;51.060;3.720;2022-07-17T02:30:17;17.70;74.70
39493;DHT22;25176;51.060;3.720;2022-07-17T02:32:44;17.60;74.50
39493;DHT22;25176;51.060;3.720;2022-07-17T02:35:11;17.60;75.10
39493;DHT22;25176;51.060;3.720;2022-07-17T02:37:38;17.50;75.10
39493;DHT22;25176;51.060;3.720;2022-07-17T02:40:04;17.60;75.00
39493;DHT22;25176;51.060;3.720;2022-07-17T02:42:30;17.60;75.00
39493;DHT22;25176;51.060;3.720;2022-07-17T02:44:58;17.60;75.20
39493;DHT22;25176;51.060;3.720;2022-07-17T02:47:29;17.70;75.50
39493;DHT22;25176;51.060;3.720;2022-07-17T02:49:55;17.80;74.90
39493;DHT22;25176;51.060;3.720;2022-07-17T02:52:21;17.70;75.60
39493;DHT22;25176;51.060;3.720;2022-07-17T02:54:47;17.90;74.80
39493;DHT22;25176;51.060;3.720;2022-07-17T02:57:14;17.70;75.10
39493;DHT22;25176;51.060;3.720;2022-07-17T02:59:40;17.60;76.30
39493;DHT22;25176;51.060;3.720;2022-07-17T03:02:06;17.50;76.50
39493;DHT22;25176;51.060;3.720;2022-07-17T03:04:31;17.50;77.00
39493;DHT22;25176;51.060;3.720;2022-07-17T03:06:57;17.30;77.60
39493;DHT22;25176;51.060;3.720;2022-07-17T03:09:22;17.20;78.70
39493;DHT22;25176;51.060;3.720;2022-07-17T03:11:48;17.20;78.60
39493;DHT22;25176;51.060;3.720;2022-07-17T03:14:14;17.20;79.20
39493;DHT22;25176;51.060;3.720;2022-07-17T03:16:39;17.20;79.10
39493;DHT22;25176;51.060;3.720;2022-07-17T03:19:05;17.30;78.90
39493;DHT22;25176;51.060;3.720;2022-07-17T03:21:30;17.40;78.90
39493;DHT22;25176;51.060;3.720;2022-07-17T03:23:56;17.40;78.90
39493;DHT22;25176;51.060;3.720;2022-07-17T03:26:21;17.40;78.60
39493;DHT22;25176;51.060;3.720;2022-07-17T03:28:47;17.40;79.40
39493;DHT22;25176;51.060;3.720;2022-07-17T03:31:13;17.30;79.10
39493;DHT22;25176;51.060;3.720;2022-07-17T03:33:38;17.00;80.50
39493;DHT22;25176;51.060;3.720;2022-07-17T03:36:04;16.80;82.00
39493;DHT22;25176;51.060;3.720;2022-07-17T03:38:30;16.80;82.50
39493;DHT22;25176;51.060;3.720;2022-07-17T03:40:56;16.80;82.90
39493;DHT22;25176;51.060;3.720;2022-07-17T03:43:21;16.80;83.10
39493;DHT22;25176;51.060;3.720;2022-07-17T03:45:47;16.70;83.70
39493;DHT22;25176;51.060;3.720;2022-07-17T03:48:12;16.70;84.00
39493;DHT22;25176;51.060;3.720;2022-07-17T03:50:38;16.70;84.50
39493;DHT22;25176;51.060;3.720;2022-07-17T03:53:03;16.70;84.80
39493;DHT22;25176;51.060;3.720;2022-07-17T03:55:29;16.70;85.10
39493;DHT22;25176;51.060;3.720;2022-07-17T03:57:55;16.70;85.20
39493;DHT22;25176;51.060;3.720;2022-07-17T04:00:20;16.70;85.60
39493;DHT22;25176;51.060;3.720;2022-07-17T04:02:46;16.70;85.80
39493;DHT22;25176;51.060;3.720;2022-07-17T04:05:12;16.70;86.00
39493;DHT22;25176;51.060;3.720;2022-07-17T04:07:38;16.80;85.80
39493;DHT22;25176;51.060;3.720;2022-07-17T04:10:05;16.80;85.30
39493;DHT22;25176;51.060;3.720;2022-07-17T04:12:32;16.80;85.90
39493;DHT22;25176;51.060;3.720;2022-07-17T04:14:57;16.90;85.90
39493;DHT22;25176;51.060;3.720;2022-07-17T04:17:23;16.90;85.90
39493;DHT22;25176;51.060;3.720;2022-07-17T04:19:49;17.00;85.90
39493;DHT22;25176;51.060;3.720;2022-07-17T04:22:15;17.10;85.10
39493;DHT22;25176;51.060;3.720;2022-07-17T04:24:41;17.00;85.50
39493;DHT22;25176;51.060;3.720;2022-07-17T04:27:07;17.00;86.10
39493;DHT22;25176;51.060;3.720;2022-07-17T04:29:33;17.10;84.90
39493;DHT22;25176;51.060;3.720;2022-07-17T04:31:59;17.10;85.60
39493;DHT22;25176;51.060;3.720;2022-07-17T04:34:24;17.10;85.10
39493;DHT22;25176;51.060;3.720;2022-07-17T04:36:50;17.10;85.10
39493;DHT22;25176;51.060;3.720;2022-07-17T04:39:16;17.10;85.90
39493;DHT22;25176;51.060;3.720;2022-07-17T04:41:41;17.20;85.20
39493;DHT22;25176;51.060;3.720;2022-07-17T04:44:07;17.30;85.10
39493;DHT22;25176;51.060;3.720;2022-07-17T04:46:33;17.40;84.10
39493;DHT22;25176;51.060;3.720;2022-07-17T04:48:58;17.20;85.00
39493;DHT22;25176;51.060;3.720;2022-07-17T04:51:24;17.10;85.70
39493;DHT22;25176;51.060;3.720;2022-07-17T04:53:49;17.20;85.90
39493;DHT22;25176;51.060;3.720;2022-07-17T04:56:15;17.30;85.10
39493;DHT22;25176;51.060;3.720;2022-07-17T04:58:41;17.30;85.40
39493;DHT22;25176;51.060;3.720;2022-07-17T05:01:06;17.30;85.10
39493;DHT22;25176;51.060;3.720;2022-07-17T05:03:32;17.40;85.30
39493;DHT22;25176;51.060;3.720;2022-07-17T05:05:58;17.40;84.60
39493;DHT22;25176;51.060;3.720;2022-07-17T05:08:23;17.30;85.20
39493;DHT22;25176;51.060;3.720;2022-07-17T05:10:49;17.20;85.30
39493;DHT22;25176;51.060;3.720;2022-07-17T05:13:14;17.00;86.50
39493;DHT22;25176;51.060;3.720;2022-07-17T05:15:40;16.90;87.10
39493;DHT22;25176;51.060;3.720;2022-07-17T05:18:06;16.90;87.40
39493;DHT22;25176;51.060;3.720;2022-07-17T05:20:31;16.90;87.60
39493;DHT22;25176;51.060;3.720;2022-07-17T05:22:57;16.90;87.70
39493;DHT22;25176;51.060;3.720;2022-07-17T05:25:22;17.00;88.00
39493;DHT22;25176;51.060;3.720;2022-07-17T05:27:48;17.20;87.00
39493;DHT22;25176;51.060;3.720;2022-07-17T05:30:14;17.30;85.90
39493;DHT22;25176;51.060;3.720;2022-07-17T05:32:39;17.50;85.70
39493;DHT22;25176;51.060;3.720;2022-07-17T05:35:05;17.60;85.10
39493;DHT22;25176;51.060;3.720;2022-07-17T05:37:31;17.60;85.30
39493;DHT22;25176;51.060;3.720;2022-07-17T05:39:57;17.70;84.50
39493;DHT22;25176;51.060;3.720;2022-07-17T05:42:22;17.80;84.10
39493;DHT22;25176;51.060;3.720;2022-07-17T05:44:48;18.00;83.60
39493;DHT22;25176;51.060;3.720;2022-07-17T05:47:14;18.10;82.90
39493;DHT22;25176;51.060;3.720;2022-07-17T05:49:39;17.90;83.20
39493;DHT22;25176;51.060;3.720;2022-07-17T05:52:05;17.90;83.80
39493;DHT22;25176;51.060;3.720;2022-07-17T05:54:31;18.00;84.10
39493;DHT22;25176;51.060;3.720;2022-07-17T05:56:58;18.10;83.10
39493;DHT22;25176;51.060;3.720;2022-07-17T05:59:24;18.20;82.60
39493;DHT22;25176;51.060;3.720;2022-07-17T06:01:49;18.30;81.60
39493;DHT22;25176;51.060;3.720;2022-07-17T06:04:15;18.20;81.90
39493;DHT22;25176;51.060;3.720;2022-07-17T06:06:40;18.30;81.80
39493;DHT22;25176;51.060;3.720;2022-07-17T06:09:06;18.30;82.00
39493;DHT22;25176;51.060;3.720;2022-07-17T06:11:32;18.40;80.90
39493;DHT22;25176;51.060;3.720;2022-07-17T06:13:57;18.30;81.80
39493;DHT22;25176;51.060;3.720;2022-07-17T06:16:23;18.30;81.50
39493;DHT22;25176;51.060;3.720;2022-07-17T06:18:48;18.40;81.90
39493;DHT22;25176;51.060;3.720;2022-07-17T06:21:14;18.60;81.30
39493;DHT22;25176;51.060;3.720;2022-07-17T06:23:39;18.70;80.70
39493;DHT22;25176;51.060;3.720;2022-07-17T06:26:05;18.80;79.90
39493;DHT22;25176;51.060;3.720;2022-07-17T06:28:31;18.80;79.70
39493;DHT22;25176;51.060;3.720;2022-07-17T06:30:57;18.70;79.70
39493;DHT22;25176;51.060;3.720;2022-07-17T06:33:22;18.80;78.90
39493;DHT22;25176;51.060;3.720;2022-07-17T06:35:48;18.70;79.90
39493;DHT22;25176;51.060;3.720;2022-07-17T06:38:14;18.40;80.40
39493;DHT22;25176;51.060;3.720;2022-07-17T06:40:39;18.50;80.10
39493;DHT22;25176;51.060;3.720;2022-07-17T06:43:06;18.40;80.50
39493;DHT22;25176;51.060;3.720;2022-07-17T06:45:32;18.60;80.40
39493;DHT22;25176;51.060;3.720;2022-07-17T06:47:58;18.80;80.10
39493;DHT22;25176;51.060;3.720;2022-07-17T06:50:23;19.10;78.90
39493;DHT22;25176;51.060;3.720;2022-07-17T06:52:49;19.30;77.50
39493;DHT22;25176;51.060;3.720;2022-07-17T06:55:14;19.50;77.00
39493;DHT22;25176;51.060;3.720;2022-07-17T06:57:40;20.00;75.50
39493;DHT22;25176;51.060;3.720;2022-07-17T07:00:06;21.00;72.40
39493;DHT22;25176;51.060;3.720;2022-07-17T07:02:34;22.70;68.80
39493;DHT22;25176;51.060;3.720;2022-07-17T07:04:59;25.30;61.80
39493;DHT22;25176;51.060;3.720;2022-07-17T07:07:25;26.50;56.80
39493;DHT22;25176;51.060;3.720;2022-07-17T07:09:50;27.10;54.10
39493;DHT22;25176;51.060;3.720;2022-07-17T07:12:16;27.30;52.00
39493;DHT22;25176;51.060;3.720;2022-07-17T07:14:42;28.30;51.20
39493;DHT22;25176;51.060;3.720;2022-07-17T07:17:07;29.10;48.90
39493;DHT22;25176;51.060;3.720;2022-07-17T07:19:33;29.40;48.60
39493;DHT22;25176;51.060;3.720;2022-07-17T07:21:58;30.40;47.60
39493;DHT22;25176;51.060;3.720;2022-07-17T07:24:24;31.70;46.50
39493;DHT22;25176;51.060;3.720;2022-07-17T07:26:49;31.10;45.20
39493;DHT22;25176;51.060;3.720;2022-07-17T07:29:15;31.50;45.90
39493;DHT22;25176;51.060;3.720;2022-07-17T07:31:41;31.50;45.30
39493;DHT22;25176;51.060;3.720;2022-07-17T07:34:07;32.30;44.20
39493;DHT22;25176;51.060;3.720;2022-07-17T07:36:33;33.60;43.30
39493;DHT22;25176;51.060;3.720;2022-07-17T07:38:58;33.00;42.50
39493;DHT22;25176;51.060;3.720;2022-07-17T07:41:24;33.60;42.30
39493;DHT22;25176;51.060;3.720;2022-07-17T07:43:50;35.20;41.20
39493;DHT22;25176;51.060;3.720;2022-07-17T07:46:15;35.50;39.90
39493;DHT22;25176;51.060;3.720;2022-07-17T07:48:41;34.60;40.80
39493;DHT22;25176;51.060;3.720;2022-07-17T07:51:07;36.10;39.50
39493;DHT22;25176;51.060;3.720;2022-07-17T07:53:32;36.20;39.70
39493;DHT22;25176;51.060;3.720;2022-07-17T07:55:58;37.70;38.70
39493;DHT22;25176;51.060;3.720;2022-07-17T07:58:24;39.00;37.60
39493;DHT22;25176;51.060;3.720;2022-07-17T08:00:49;38.80;37.10
39493;DHT22;25176;51.060;3.720;2022-07-17T08:03:15;37.20;38.30
39493;DHT22;25176;51.060;3.720;2022-07-17T08:05:41;38.70;37.60
39493;DHT22;25176;51.060;3.720;2022-07-17T08:08:06;37.80;37.30
39493;DHT22;25176;51.060;3.720;2022-07-17T08:10:33;37.90;37.00
39493;DHT22;25176;51.060;3.720;2022-07-17T08:12:58;36.80;37.80
39493;DHT22;25176;51.060;3.720;2022-07-17T08:15:24;39.00;37.10
39493;DHT22;25176;51.060;3.720;2022-07-17T08:17:52;38.60;36.60
39493;DHT22;25176;51.060;3.720;2022-07-17T08:20:19;35.60;38.20
39493;DHT22;25176;51.060;3.720;2022-07-17T08:22:45;36.90;38.40
39493;DHT22;25176;51.060;3.720;2022-07-17T08:25:11;37.10;37.70
39493;DHT22;25176;51.060;3.720;2022-07-17T08:27:38;37.00;37.30
39493;DHT22;25176;51.060;3.720;2022-07-17T08:30:06;38.30;36.80
39493;DHT22;25176;51.060;3.720;2022-07-17T08:32:33;37.80;37.10
39493;DHT22;25176;51.060;3.720;2022-07-17T08:34:58;39.50;36.40
39493;DHT22;25176;51.060;3.720;2022-07-17T08:37:24;38.80;35.60
39493;DHT22;25176;51.060;3.720;2022-07-17T08:39:51;36.40;37.70
39493;DHT22;25176;51.060;3.720;2022-07-17T08:42:17;37.10;37.30
39493;DHT22;25176;51.060;3.720;2022-07-17T08:44:43;36.80;37.00
39493;DHT22;25176;51.060;3.720;2022-07-17T08:47:13;36.10;37.70
39493;DHT22;25176;51.060;3.720;2022-07-17T08:49:41;36.30;37.80
39493;DHT22;25176;51.060;3.720;2022-07-17T08:52:07;35.40;38.20
39493;DHT22;25176;51.060;3.720;2022-07-17T08:54:33;34.10;39.30
39493;DHT22;25176;51.060;3.720;2022-07-17T08:56:59;33.90;39.10
39493;DHT22;25176;51.060;3.720;2022-07-17T08:59:25;32.90;40.20
39493;DHT22;25176;51.060;3.720;2022-07-17T09:01:51;32.80;40.80
39493;DHT22;25176;51.060;3.720;2022-07-17T09:04:17;32.20;41.80
39493;DHT22;25176;51.060;3.720;2022-07-17T09:06:42;35.20;41.20
39493;DHT22;25176;51.060;3.720;2022-07-17T09:09:10;38.30;37.20
39493;DHT22;25176;51.060;3.720;2022-07-17T09:11:46;40.60;35.70
39493;DHT22;25176;51.060;3.720;2022-07-17T09:14:12;39.50;35.50
39493;DHT22;25176;51.060;3.720;2022-07-17T09:16:55;41.30;34.60
39493;DHT22;25176;51.060;3.720;2022-07-17T09:19:32;41.30;33.70
39493;DHT22;25176;51.060;3.720;2022-07-17T09:22:14;43.60;33.80
39493;DHT22;25176;51.060;3.720;2022-07-17T09:27:07;43.50;33.60
39493;DHT22;25176;51.060;3.720;2022-07-17T09:29:33;44.60;32.80
39493;DHT22;25176;51.060;3.720;2022-07-17T09:31:59;44.70;32.40
39493;DHT22;25176;51.060;3.720;2022-07-17T09:34:24;46.50;31.90
39493;DHT22;25176;51.060;3.720;2022-07-17T09:37:02;45.80;32.00
39493;DHT22;25176;51.060;3.720;2022-07-17T09:39:36;45.50;31.60
39493;DHT22;25176;51.060;3.720;2022-07-17T09:42:02;43.90;32.90
39493;DHT22;25176;51.060;3.720;2022-07-17T09:44:27;45.20;31.90
39493;DHT22;25176;51.060;3.720;2022-07-17T09:46:54;46.80;31.80
39493;DHT22;25176;51.060;3.720;2022-07-17T09:49:25;49.20;30.60
39493;DHT22;25176;51.060;3.720;2022-07-17T09:51:51;47.00;30.70
39493;DHT22;25176;51.060;3.720;2022-07-17T09:54:21;44.90;31.20
39493;DHT22;25176;51.060;3.720;2022-07-17T09:56:50;46.10;31.20
39493;DHT22;25176;51.060;3.720;2022-07-17T09:59:17;48.30;30.80
39493;DHT22;25176;51.060;3.720;2022-07-17T10:01:44;49.60;30.80
39493;DHT22;25176;51.060;3.720;2022-07-17T10:04:13;50.60;29.80
39493;DHT22;25176;51.060;3.720;2022-07-17T10:06:40;46.10;30.40
39493;DHT22;25176;51.060;3.720;2022-07-17T10:09:06;46.40;30.80
39493;DHT22;25176;51.060;3.720;2022-07-17T10:11:34;48.10;30.20
39493;DHT22;25176;51.060;3.720;2022-07-17T10:14:10;46.50;30.00
39493;DHT22;25176;51.060;3.720;2022-07-17T10:16:37;46.10;30.80
39493;DHT22;25176;51.060;3.720;2022-07-17T10:19:15;45.20;31.00
39493;DHT22;25176;51.060;3.720;2022-07-17T10:21:58;46.70;30.80
39493;DHT22;25176;51.060;3.720;2022-07-17T10:24:25;43.10;31.20
39493;DHT22;25176;51.060;3.720;2022-07-17T10:26:51;41.80;32.70
39493;DHT22;25176;51.060;3.720;2022-07-17T10:29:34;42.70;31.50
39493;DHT22;25176;51.060;3.720;2022-07-17T10:32:14;42.40;31.20
39493;DHT22;25176;51.060;3.720;2022-07-17T10:34:44;42.00;31.50
39493;DHT22;25176;51.060;3.720;2022-07-17T10:37:38;44.50;31.20
39493;DHT22;25176;51.060;3.720;2022-07-17T10:40:24;44.70;31.10
39493;DHT22;25176;51.060;3.720;2022-07-17T10:43:01;42.50;31.30
39493;DHT22;25176;51.060;3.720;2022-07-17T10:45:56;38.50;33.10
39493;DHT22;25176;51.060;3.720;2022-07-17T10:48:22;39.00;34.40
39493;DHT22;25176;51.060;3.720;2022-07-17T10:50:55;39.40;34.10
39493;DHT22;25176;51.060;3.720;2022-07-17T10:53:34;39.60;33.90
39493;DHT22;25176;51.060;3.720;2022-07-17T10:58:36;39.60;33.30
39493;DHT22;25176;51.060;3.720;2022-07-17T11:03:42;38.00;33.60
39493;DHT22;25176;51.060;3.720;2022-07-17T11:06:12;33.30;37.40
39493;DHT22;25176;51.060;3.720;2022-07-17T11:11:38;32.10;38.20
39493;DHT22;25176;51.060;3.720;2022-07-17T11:16:51;31.90;39.30
39493;DHT22;25176;51.060;3.720;2022-07-17T11:19:25;32.40;38.80
39493;DHT22;25176;51.060;3.720;2022-07-17T11:21:52;31.60;38.90
39493;DHT22;25176;51.060;3.720;2022-07-17T11:24:18;31.00;39.10
39493;DHT22;25176;51.060;3.720;2022-07-17T11:26:44;30.20;40.00
39493;DHT22;25176;51.060;3.720;2022-07-17T11:29:10;30.10;39.50
39493;DHT22;25176;51.060;3.720;2022-07-17T11:31:36;29.50;40.60
39493;DHT22;25176;51.060;3.720;2022-07-17T11:34:07;29.20;40.30
39493;DHT22;25176;51.060;3.720;2022-07-17T11:36:42;28.80;41.60
39493;DHT22;25176;51.060;3.720;2022-07-17T11:39:12;27.80;42.50
39493;DHT22;25176;51.060;3.720;2022-07-17T11:41:49;27.70;42.80
39493;DHT22;25176;51.060;3.720;2022-07-17T11:44:23;27.90;42.10
39493;DHT22;25176;51.060;3.720;2022-07-17T11:46:50;28.40;41.50
39493;DHT22;25176;51.060;3.720;2022-07-17T11:49:27;28.20;41.60
39493;DHT22;25176;51.060;3.720;2022-07-17T11:51:58;28.10;41.60
39493;DHT22;25176;51.060;3.720;2022-07-17T11:54:28;28.20;42.50
39493;DHT22;25176;51.060;3.720;2022-07-17T11:56:58;27.50;44.70
39493;DHT22;25176;51.060;3.720;2022-07-17T11:59:31;27.40;44.70
39493;DHT22;25176;51.060;3.720;2022-07-17T12:02:10;27.60;44.50
39493;DHT22;25176;51.060;3.720;2022-07-17T12:04:47;27.90;44.60
39493;DHT22;25176;51.060;3.720;2022-07-17T12:07:13;27.90;43.90
39493;DHT22;25176;51.060;3.720;2022-07-17T12:09:38;28.20;42.90
39493;DHT22;25176;51.060;3.720;2022-07-17T12:12:04;28.00;43.70
39493;DHT22;25176;51.060;3.720;2022-07-17T12:14:30;27.70;44.70
39493;DHT22;25176;51.060;3.720;2022-07-17T12:16:57;27.90;44.10
39493;DHT22;25176;51.060;3.720;2022-07-17T12:19:24;27.90;44.20
39493;DHT22;25176;51.060;3.720;2022-07-17T12:22:00;28.20;43.20
39493;DHT22;25176;51.060;3.720;2022-07-17T12:24:28;28.40;43.00
39493;DHT22;25176;51.060;3.720;2022-07-17T12:26:56;28.60;42.80
39493;DHT22;25176;51.060;3.720;2022-07-17T12:29:23;28.50;42.10
39493;DHT22;25176;51.060;3.720;2022-07-17T12:31:49;28.40;42.60
39493;DHT22;25176;51.060;3.720;2022-07-17T12:34:24;28.00;42.10
39493;DHT22;25176;51.060;3.720;2022-07-17T12:36:50;27.70;42.30
39493;DHT22;25176;51.060;3.720;2022-07-17T12:39:15;27.80;42.40
39493;DHT22;25176;51.060;3.720;2022-07-17T12:41:41;27.60;42.20
39493;DHT22;25176;51.060;3.720;2022-07-17T12:44:07;27.70;42.90
39493;DHT22;25176;51.060;3.720;2022-07-17T12:46:33;27.80;42.40
39493;DHT22;25176;51.060;3.720;2022-07-17T12:48:58;27.70;42.20
39493;DHT22;25176;51.060;3.720;2022-07-17T12:51:24;27.70;42.80
39493;DHT22;25176;51.060;3.720;2022-07-17T12:53:49;27.80;42.00
39493;DHT22;25176;51.060;3.720;2022-07-17T12:56:15;27.80;41.50
39493;DHT22;25176;51.060;3.720;2022-07-17T12:58:41;28.00;40.60
39493;DHT22;25176;51.060;3.720;2022-07-17T13:01:06;28.20;40.10
39493;DHT22;25176;51.060;3.720;2022-07-17T13:03:33;28.50;39.90
39493;DHT22;25176;51.060;3.720;2022-07-17T13:05:59;28.40;41.20
39493;DHT22;25176;51.060;3.720;2022-07-17T13:08:26;28.50;41.70
39493;DHT22;25176;51.060;3.720;2022-07-17T13:10:53;28.40;41.90
39493;DHT22;25176;51.060;3.720;2022-07-17T13:13:18;28.30;41.90
39493;DHT22;25176;51.060;3.720;2022-07-17T13:15:44;28.00;42.20
39493;DHT22;25176;51.060;3.720;2022-07-17T13:18:10;28.00;41.80
39493;DHT22;25176;51.060;3.720;2022-07-17T13:20:35;28.10;41.70
39493;DHT22;25176;51.060;3.720;2022-07-17T13:23:01;28.30;40.50
39493;DHT22;25176;51.060;3.720;2022-07-17T13:25:27;28.20;40.00
39493;DHT22;25176;51.060;3.720;2022-07-17T13:27:53;28.00;41.20
39493;DHT22;25176;51.060;3.720;2022-07-17T13:30:19;28.00;41.80
39493;DHT22;25176;51.060;3.720;2022-07-17T13:32:44;27.90;41.70
39493;DHT22;25176;51.060;3.720;2022-07-17T13:35:10;27.90;41.60
39493;DHT22;25176;51.060;3.720;2022-07-17T13:37:39;28.00;40.50
39493;DHT22;25176;51.060;3.720;2022-07-17T13:40:06;28.00;39.50
39493;DHT22;25176;51.060;3.720;2022-07-17T13:42:32;28.00;39.30
39493;DHT22;25176;51.060;3.720;2022-07-17T13:44:57;27.80;39.40
39493;DHT22;25176;51.060;3.720;2022-07-17T13:47:23;28.00;39.70
39493;DHT22;25176;51.060;3.720;2022-07-17T13:49:48;28.10;40.30
39493;DHT22;25176;51.060;3.720;2022-07-17T13:52:14;28.00;41.00
39493;DHT22;25176;51.060;3.720;2022-07-17T13:54:40;28.10;41.20
39493;DHT22;25176;51.060;3.720;2022-07-17T13:57:05;28.00;41.80
39493;DHT22;25176;51.060;3.720;2022-07-17T13:59:31;28.00;41.20
39493;DHT22;25176;51.060;3.720;2022-07-17T14:01:56;28.20;41.00
39493;DHT22;25176;51.060;3.720;2022-07-17T14:04:22;28.10;42.70
39493;DHT22;25176;51.060;3.720;2022-07-17T14:06:48;28.20;42.60
39493;DHT22;25176;51.060;3.720;2022-07-17T14:09:13;28.20;42.70
39493;DHT22;25176;51.060;3.720;2022-07-17T14:11:39;28.30;42.20
39493;DHT22;25176;51.060;3.720;2022-07-17T14:14:04;28.30;42.50
39493;DHT22;25176;51.060;3.720;2022-07-17T14:16:30;28.10;42.60
39493;DHT22;25176;51.060;3.720;2022-07-17T14:18:56;28.00;42.40
39493;DHT22;25176;51.060;3.720;2022-07-17T14:21:26;28.10;42.00
39493;DHT22;25176;51.060;3.720;2022-07-17T14:23:51;28.10;42.30
39493;DHT22;25176;51.060;3.720;2022-07-17T14:26:17;28.00;42.20
39493;DHT22;25176;51.060;3.720;2022-07-17T14:28:43;27.80;42.10
39493;DHT22;25176;51.060;3.720;2022-07-17T14:31:08;27.80;42.80
39493;DHT22;25176;51.060;3.720;2022-07-17T14:33:34;27.80;43.00
39493;DHT22;25176;51.060;3.720;2022-07-17T14:35:59;27.90;42.90
39493;DHT22;25176;51.060;3.720;2022-07-17T14:38:25;27.90;42.60
39493;DHT22;25176;51.060;3.720;2022-07-17T14:40:51;27.80;41.90
39493;DHT22;25176;51.060;3.720;2022-07-17T14:43:16;27.80;42.10
39493;DHT22;25176;51.060;3.720;2022-07-17T14:45:42;27.60;42.10
39493;DHT22;25176;51.060;3.720;2022-07-17T14:48:07;27.50;41.80
39493;DHT22;25176;51.060;3.720;2022-07-17T14:50:33;27.50;41.90
39493;DHT22;25176;51.060;3.720;2022-07-17T14:52:58;27.40;42.50
39493;DHT22;25176;51.060;3.720;2022-07-17T14:55:24;27.60;42.40
39493;DHT22;25176;51.060;3.720;2022-07-17T14:57:49;27.80;42.50
39493;DHT22;25176;51.060;3.720;2022-07-17T15:00:15;27.80;42.60
39493;DHT22;25176;51.060;3.720;2022-07-17T15:02:41;27.90;41.30
39493;DHT22;25176;51.060;3.720;2022-07-17T15:05:08;27.80;41.10
39493;DHT22;25176;51.060;3.720;2022-07-17T15:07:33;28.00;40.10
39493;DHT22;25176;51.060;3.720;2022-07-17T15:09:59;28.10;39.40
39493;DHT22;25176;51.060;3.720;2022-07-17T15:12:25;28.20;39.70
39493;DHT22;25176;51.060;3.720;2022-07-17T15:14:50;28.20;39.50
39493;DHT22;25176;51.060;3.720;2022-07-17T15:17:16;28.00;39.80
39493;DHT22;25176;51.060;3.720;2022-07-17T15:19:41;28.00;40.10
39493;DHT22;25176;51.060;3.720;2022-07-17T15:22:07;28.00;40.10
39493;DHT22;25176;51.060;3.720;2022-07-17T15:24:32;28.00;39.70
39493;DHT22;25176;51.060;3.720;2022-07-17T15:26:58;28.00;40.20
39493;DHT22;25176;51.060;3.720;2022-07-17T15:29:24;28.10;40.80
39493;DHT22;25176;51.060;3.720;2022-07-17T15:31:49;28.10;41.30
39493;DHT22;25176;51.060;3.720;2022-07-17T15:34:15;27.90;42.00
39493;DHT22;25176;51.060;3.720;2022-07-17T15:36:41;28.00;42.30
39493;DHT22;25176;51.060;3.720;2022-07-17T15:39:06;28.10;42.30
39493;DHT22;25176;51.060;3.720;2022-07-17T15:41:32;28.00;42.00
39493;DHT22;25176;51.060;3.720;2022-07-17T15:43:58;27.90;41.90